Time;durP1;ratioP1;P1;durP2;ratioP2;P2;SDS_P1;SDS_P2;PMS_P1;PMS_P2;Temp;Humidity;BMP_temperature;BMP_pressure;BME280_temperature;BME280_humidity;BME280_pressure;Samples;Min_cycle;Max_cycle;Signal;HPM_P1;HPM_P2
2022/01/04 00:00:14;;;;;;;2.47;0.60;;;11.70;99.90;;;;;;5072378;28;20658;-67
2022/01/04 00:02:40;;;;;;;1.23;1.13;;;11.60;99.90;;;;;;5073956;28;20214;-67
2022/01/04 00:05:06;;;;;;;0.60;0.60;;;11.70;99.90;;;;;;5074465;28;20596;-68
2022/01/04 00:07:32;;;;;;;0.75;0.60;;;11.70;99.90;;;;;;5074063;28;20192;-69
2022/01/04 00:09:59;;;;;;;1.50;0.80;;;11.70;99.90;;;;;;5074667;28;20228;-69
2022/01/04 00:15:10;;;;;;;0.80;0.80;;;11.60;99.90;;;;;;5074128;28;20308;-68
2022/01/04 00:17:36;;;;;;;0.60;0.60;;;11.60;99.90;;;;;;5073083;28;20267;-69
2022/01/04 00:20:04;;;;;;;1.10;1.00;;;11.60;99.90;;;;;;5073943;28;20269;-69
2022/01/04 00:22:30;;;;;;;0.65;0.65;;;11.60;99.90;;;;;;5073683;28;20855;-69
2022/01/04 00:24:56;;;;;;;0.90;0.73;;;11.60;99.90;;;;;;5074027;28;20180;-69
2022/01/04 00:27:21;;;;;;;0.60;0.60;;;11.60;99.90;;;;;;5073838;28;20660;-69
2022/01/04 00:29:47;;;;;;;1.13;0.90;;;11.60;99.90;;;;;;5073872;28;20228;-69
2022/01/04 00:32:13;;;;;;;0.90;0.90;;;11.50;99.90;;;;;;5073601;28;20641;-69
2022/01/04 00:34:38;;;;;;;0.80;0.80;;;11.50;99.90;;;;;;5073900;28;20670;-69
2022/01/04 00:37:04;;;;;;;0.70;0.70;;;11.50;99.90;;;;;;5073488;28;20194;-70
2022/01/04 00:39:29;;;;;;;1.07;0.60;;;11.50;99.90;;;;;;5073709;28;20170;-69
2022/01/04 00:41:55;;;;;;;0.90;0.90;;;11.50;99.90;;;;;;5073605;28;20630;-70
2022/01/04 00:44:21;;;;;;;1.00;1.00;;;11.50;99.90;;;;;;5073793;28;20643;-68
2022/01/04 00:46:46;;;;;;;1.80;1.00;;;11.50;99.90;;;;;;5073634;28;20686;-70
2022/01/04 00:49:12;;;;;;;0.93;0.70;;;11.50;99.90;;;;;;5073549;28;20615;-70
2022/01/04 00:51:39;;;;;;;0.53;0.43;;;11.50;99.90;;;;;;5073178;28;20563;-69
2022/01/04 00:54:06;;;;;;;1.00;0.90;;;11.50;99.90;;;;;;5073470;28;20256;-69
2022/01/04 00:56:32;;;;;;;0.80;0.80;;;11.50;99.90;;;;;;5073445;28;20667;-68
2022/01/04 00:58:57;;;;;;;1.30;1.20;;;11.50;99.90;;;;;;5064868;28;20321;-68
2022/01/04 01:01:23;;;;;;;0.70;0.70;;;11.50;99.90;;;;;;5053129;28;20408;-68
2022/01/04 01:03:49;;;;;;;1.00;0.90;;;11.50;99.90;;;;;;5053229;28;20634;-70
2022/01/04 01:06:15;;;;;;;0.63;0.63;;;11.50;99.90;;;;;;5051856;28;20426;-70
2022/01/04 01:08:41;;;;;;;1.50;1.40;;;11.50;99.90;;;;;;5053390;28;20408;-68
2022/01/04 01:11:08;;;;;;;1.50;1.37;;;11.50;99.90;;;;;;5053075;28;20204;-71
2022/01/04 01:13:34;;;;;;;0.88;0.85;;;11.50;99.90;;;;;;5053305;28;20558;-69
2022/01/04 01:16:00;;;;;;;0.80;0.80;;;11.50;99.90;;;;;;5053336;28;20228;-69
2022/01/04 01:18:26;;;;;;;1.90;0.70;;;11.50;99.90;;;;;;5053357;28;20170;-69
2022/01/04 01:20:51;;;;;;;0.67;0.67;;;11.50;99.90;;;;;;5053187;28;20491;-69
2022/01/04 01:23:19;;;;;;;0.60;0.60;;;11.50;99.90;;;;;;5053658;28;20170;-70
2022/01/04 01:25:45;;;;;;;0.50;0.50;;;11.50;99.90;;;;;;5053605;28;20167;-69
2022/01/04 01:28:10;;;;;;;0.70;0.70;;;11.50;99.90;;;;;;5053052;28;20223;-70
2022/01/04 01:30:39;;;;;;;0.40;0.40;;;11.50;99.90;;;;;;5057392;28;21004;-70
2022/01/04 01:33:05;;;;;;;0.80;0.80;;;11.50;99.90;;;;;;5056812;28;20162;-70
2022/01/04 01:35:31;;;;;;;1.77;0.60;;;11.50;99.90;;;;;;5057261;28;20312;-69
2022/01/04 01:37:58;;;;;;;1.03;0.80;;;11.50;99.90;;;;;;5057225;28;20190;-69
2022/01/04 01:40:24;;;;;;;0.60;0.60;;;11.50;99.90;;;;;;5057395;28;20419;-69
2022/01/04 01:42:49;;;;;;;1.10;1.10;;;11.50;99.90;;;;;;5056890;28;20174;-69
2022/01/04 01:45:16;;;;;;;4.83;0.90;;;11.50;99.90;;;;;;5057325;28;20415;-68
2022/01/04 01:47:44;;;;;;;1.35;0.90;;;11.50;99.90;;;;;;5056895;28;20189;-69
2022/01/04 01:50:11;;;;;;;5.88;1.00;;;11.50;99.90;;;;;;5056817;28;20194;-69
2022/01/04 01:52:38;;;;;;;1.02;0.80;;;11.50;99.90;;;;;;5056569;28;20543;-68
2022/01/04 01:55:05;;;;;;;0.60;0.60;;;11.50;99.90;;;;;;5057130;28;20194;-69
2022/01/04 01:57:31;;;;;;;1.58;0.70;;;11.50;99.90;;;;;;5056823;28;20478;-68
2022/01/04 01:59:57;;;;;;;1.43;1.33;;;11.40;99.90;;;;;;5073526;28;20212;-67
2022/01/04 02:02:23;;;;;;;0.75;0.70;;;11.40;99.90;;;;;;5076319;28;20623;-69
2022/01/04 02:04:48;;;;;;;0.53;0.53;;;11.40;99.90;;;;;;5076648;28;20185;-68
2022/01/04 02:07:15;;;;;;;0.73;0.70;;;11.30;99.90;;;;;;5076752;28;20193;-69
2022/01/04 02:09:46;;;;;;;0.60;0.57;;;11.30;99.90;;;;;;5076583;28;20447;-69
2022/01/04 02:12:13;;;;;;;0.70;0.70;;;11.30;99.90;;;;;;5076393;28;20719;-69
2022/01/04 02:14:38;;;;;;;0.88;0.88;;;11.30;99.90;;;;;;5076642;28;20176;-69
2022/01/04 02:17:04;;;;;;;1.10;0.63;;;11.30;99.90;;;;;;5076443;28;20189;-69
2022/01/04 02:19:35;;;;;;;1.27;1.07;;;11.30;99.90;;;;;;5075112;28;20177;-70
2022/01/04 02:22:00;;;;;;;1.00;1.00;;;11.30;99.90;;;;;;5076109;28;20185;-70
2022/01/04 02:24:26;;;;;;;1.03;1.03;;;11.40;99.90;;;;;;5076489;28;20175;-68
2022/01/04 02:26:52;;;;;;;1.27;1.17;;;11.50;99.90;;;;;;5076114;28;20197;-68
2022/01/04 02:29:17;;;;;;;0.70;0.70;;;11.50;99.90;;;;;;5076492;28;20635;-68
2022/01/04 02:31:43;;;;;;;0.80;0.80;;;11.50;99.90;;;;;;5075715;28;20397;-69
2022/01/04 02:34:09;;;;;;;1.20;1.13;;;11.60;99.90;;;;;;5076105;28;20176;-69
2022/01/04 02:36:40;;;;;;;0.80;0.80;;;11.60;99.90;;;;;;5075941;28;20225;-70
2022/01/04 02:39:05;;;;;;;1.98;0.95;;;11.70;99.90;;;;;;5075914;28;20616;-67
2022/01/04 02:41:31;;;;;;;0.67;0.67;;;11.60;99.90;;;;;;5075172;28;20173;-69
2022/01/04 02:43:57;;;;;;;1.27;1.27;;;11.70;99.90;;;;;;5074988;28;20215;-67
2022/01/04 02:46:22;;;;;;;1.23;1.23;;;11.70;99.90;;;;;;5075774;28;20276;-69
2022/01/04 02:48:48;;;;;;;0.53;0.53;;;11.70;99.90;;;;;;5074836;28;20530;-69
2022/01/04 02:51:13;;;;;;;0.93;0.93;;;11.70;99.90;;;;;;5075501;28;20727;-68
2022/01/04 02:53:40;;;;;;;1.00;1.00;;;11.70;99.90;;;;;;5076085;28;20165;-68
2022/01/04 02:56:06;;;;;;;1.77;1.67;;;11.70;99.90;;;;;;5075783;28;20162;-69
2022/01/04 02:58:32;;;;;;;1.40;1.30;;;11.80;99.90;;;;;;5070754;28;20216;-69
2022/01/04 03:00:58;;;;;;;0.70;0.70;;;11.80;99.90;;;;;;5055644;28;20171;-70
2022/01/04 03:03:23;;;;;;;0.90;0.90;;;11.70;99.90;;;;;;5055158;28;20253;-70
2022/01/04 03:05:49;;;;;;;1.20;1.10;;;11.70;99.90;;;;;;5054253;28;20196;-66
2022/01/04 03:08:15;;;;;;;1.27;1.20;;;11.70;99.90;;;;;;5055407;28;20190;-69
2022/01/04 03:10:40;;;;;;;0.70;0.70;;;11.70;99.90;;;;;;5055532;28;20190;-68
2022/01/04 03:13:07;;;;;;;2.13;1.00;;;11.70;99.90;;;;;;5053585;28;20173;-69
2022/01/04 03:15:33;;;;;;;1.25;1.20;;;11.70;99.90;;;;;;5054013;28;20170;-69
2022/01/04 03:17:59;;;;;;;2.03;1.08;;;11.80;99.90;;;;;;5055124;28;20195;-69
2022/01/04 03:20:25;;;;;;;0.83;0.83;;;11.80;99.90;;;;;;5054078;28;20181;-68
2022/01/04 03:22:50;;;;;;;1.23;1.13;;;11.80;99.90;;;;;;5054901;28;20240;-68
2022/01/04 03:25:16;;;;;;;0.87;0.67;;;11.80;99.90;;;;;;5055201;28;20253;-69
2022/01/04 03:27:42;;;;;;;0.80;0.63;;;11.90;99.90;;;;;;5055129;28;20194;-69
2022/01/04 03:30:08;;;;;;;0.77;0.77;;;11.90;99.90;;;;;;5055210;28;20197;-68
2022/01/04 03:32:34;;;;;;;0.60;0.60;;;11.90;99.90;;;;;;5054814;28;20181;-69
2022/01/04 03:34:59;;;;;;;1.27;1.07;;;11.90;99.90;;;;;;5054987;28;20170;-69
2022/01/04 03:37:25;;;;;;;1.53;0.70;;;11.80;99.90;;;;;;5055214;28;20201;-68
2022/01/04 03:39:50;;;;;;;1.33;0.90;;;11.80;99.90;;;;;;5055093;28;20507;-70
2022/01/04 03:42:16;;;;;;;0.70;0.63;;;11.80;99.90;;;;;;5054526;28;20241;-68
2022/01/04 03:44:42;;;;;;;1.37;1.10;;;11.80;99.90;;;;;;5055155;28;20629;-69
2022/01/04 03:47:08;;;;;;;0.77;0.77;;;11.80;99.90;;;;;;5054573;28;20198;-69
2022/01/04 03:49:33;;;;;;;1.53;1.10;;;11.80;99.90;;;;;;5055088;28;20292;-69
2022/01/04 03:51:59;;;;;;;1.00;0.93;;;11.80;99.90;;;;;;5054153;28;20337;-71
2022/01/04 03:54:25;;;;;;;0.60;0.60;;;11.80;99.90;;;;;;5054617;28;20181;-68
2022/01/04 03:56:50;;;;;;;0.87;0.73;;;11.80;99.90;;;;;;5054389;28;20188;-67
2022/01/04 03:59:17;;;;;;;0.83;0.83;;;11.80;99.90;;;;;;5054555;28;20635;-68
2022/01/04 04:01:42;;;;;;;0.80;0.60;;;11.80;99.90;;;;;;5054158;28;20183;-70
2022/01/04 04:04:09;;;;;;;1.07;0.90;;;11.80;99.90;;;;;;5054390;28;20610;-70
2022/01/04 04:06:34;;;;;;;0.80;0.80;;;11.80;99.90;;;;;;5054203;28;20261;-70
2022/01/04 04:09:00;;;;;;;1.10;1.10;;;11.80;99.90;;;;;;5054359;28;20600;-68
2022/01/04 04:11:27;;;;;;;1.15;1.15;;;11.80;99.90;;;;;;5053903;28;20247;-69
2022/01/04 04:13:52;;;;;;;0.52;0.50;;;11.80;99.90;;;;;;5054098;28;20553;-69
2022/01/04 04:16:18;;;;;;;0.80;0.80;;;11.80;99.90;;;;;;5054074;28;20194;-69
2022/01/04 04:18:44;;;;;;;0.80;0.80;;;11.80;99.90;;;;;;5054144;28;20257;-68
2022/01/04 04:21:10;;;;;;;1.47;1.07;;;11.80;99.90;;;;;;5053893;28;20177;-67
2022/01/04 04:23:36;;;;;;;2.17;1.97;;;11.90;99.90;;;;;;5052847;28;20179;-69
2022/01/04 04:26:02;;;;;;;1.00;0.67;;;11.80;99.90;;;;;;5053835;28;20477;-69
2022/01/04 04:28:28;;;;;;;0.50;0.47;;;11.80;99.90;;;;;;5053907;28;20172;-69
2022/01/04 04:30:55;;;;;;;1.10;1.00;;;11.80;99.90;;;;;;5053899;28;20448;-69
2022/01/04 04:33:22;;;;;;;0.70;0.70;;;11.80;99.90;;;;;;5053447;28;20158;-69
2022/01/04 04:35:47;;;;;;;0.73;0.73;;;11.70;99.90;;;;;;5053867;28;20181;-68
2022/01/04 04:38:13;;;;;;;1.30;0.50;;;11.70;99.90;;;;;;5053776;28;20198;-69
2022/01/04 04:40:38;;;;;;;0.50;0.50;;;11.70;99.90;;;;;;5053486;28;20531;-68
2022/01/04 04:43:05;;;;;;;0.67;0.60;;;11.60;99.90;;;;;;5053351;28;20643;-68
2022/01/04 04:45:30;;;;;;;0.60;0.60;;;11.60;99.90;;;;;;5053721;28;20244;-68
2022/01/04 04:47:56;;;;;;;0.80;0.80;;;11.60;99.90;;;;;;5052195;28;20197;-68
2022/01/04 04:50:22;;;;;;;0.80;0.80;;;11.60;99.90;;;;;;5053542;28;20252;-68
2022/01/04 04:52:48;;;;;;;2.53;1.40;;;11.60;99.90;;;;;;5052990;28;20202;-68
2022/01/04 04:55:13;;;;;;;0.63;0.63;;;11.60;99.90;;;;;;5053502;28;20198;-68
2022/01/04 04:57:39;;;;;;;1.13;1.03;;;11.60;99.90;;;;;;5053404;28;20207;-68
2022/01/04 05:00:07;;;;;;;0.82;0.82;;;11.50;99.90;;;;;;5071199;28;20183;-68
2022/01/04 05:02:33;;;;;;;0.52;0.52;;;11.50;99.90;;;;;;5072664;28;20649;-68
2022/01/04 05:04:59;;;;;;;1.07;1.00;;;11.50;99.90;;;;;;5072502;28;20233;-68
2022/01/04 05:07:26;;;;;;;0.70;0.70;;;11.60;99.90;;;;;;5072274;28;20250;-67
2022/01/04 05:09:51;;;;;;;0.77;0.77;;;11.60;99.90;;;;;;5072044;28;20198;-68
2022/01/04 05:12:17;;;;;;;1.40;1.30;;;11.60;99.90;;;;;;5072926;28;20164;-67
2022/01/04 05:14:46;;;;;;;0.83;0.83;;;11.60;99.90;;;;;;5073273;28;20251;-67
2022/01/04 05:17:13;;;;;;;0.77;0.77;;;11.60;99.90;;;;;;5073216;28;20181;-68
2022/01/04 05:19:39;;;;;;;0.88;0.88;;;11.60;99.90;;;;;;5073136;28;20251;-68
2022/01/04 05:22:06;;;;;;;1.83;1.73;;;11.50;99.90;;;;;;5072829;28;20177;-68
2022/01/04 05:24:31;;;;;;;0.77;0.77;;;11.50;99.90;;;;;;5073353;28;20180;-67
2022/01/04 05:26:57;;;;;;;0.83;0.80;;;11.50;99.90;;;;;;5073066;28;20192;-68
2022/01/04 05:29:23;;;;;;;0.80;0.80;;;11.50;99.90;;;;;;5071713;28;20169;-68
2022/01/04 05:31:48;;;;;;;0.90;0.90;;;11.50;99.90;;;;;;5072816;28;20224;-68
2022/01/04 05:34:14;;;;;;;0.70;0.70;;;11.50;99.90;;;;;;5073304;28;20168;-68
2022/01/04 05:36:40;;;;;;;0.80;0.80;;;11.50;99.90;;;;;;5072856;28;20195;-68
2022/01/04 05:39:05;;;;;;;0.70;0.70;;;11.50;99.90;;;;;;5071711;28;20252;-67
2022/01/04 05:41:33;;;;;;;0.80;0.80;;;11.50;99.90;;;;;;5072764;28;20180;-68
2022/01/04 05:43:59;;;;;;;1.48;1.23;;;11.50;99.90;;;;;;5072969;28;20508;-67
2022/01/04 05:46:25;;;;;;;0.70;0.70;;;11.40;99.90;;;;;;5071741;28;20258;-67
2022/01/04 05:48:50;;;;;;;0.93;0.87;;;11.40;99.90;;;;;;5073044;28;20173;-68
2022/01/04 05:51:16;;;;;;;1.37;1.33;;;11.30;99.90;;;;;;5072642;28;20188;-67
2022/01/04 05:53:42;;;;;;;0.63;0.53;;;11.30;99.90;;;;;;5072804;28;20173;-67
2022/01/04 05:56:08;;;;;;;0.80;0.73;;;11.30;99.90;;;;;;5072762;28;20189;-68
2022/01/04 05:58:33;;;;;;;0.77;0.77;;;11.40;99.90;;;;;;5067479;28;20247;-67
2022/01/04 06:00:59;;;;;;;0.90;0.57;;;11.40;99.90;;;;;;5052776;28;20174;-69
2022/01/04 06:03:25;;;;;;;0.80;0.80;;;11.40;99.90;;;;;;5052613;28;20171;-67
2022/01/04 06:05:52;;;;;;;2.95;1.08;;;11.40;99.90;;;;;;5052663;28;20413;-68
2022/01/04 06:08:19;;;;;;;0.60;0.60;;;11.50;99.90;;;;;;5052538;28;20663;-67
2022/01/04 06:10:50;;;;;;;1.10;1.00;;;11.50;99.90;;;;;;5052645;28;20205;-68
2022/01/04 06:16:00;;;;;;;0.80;0.70;;;11.50;99.90;;;;;;5073053;28;20177;-68
2022/01/04 06:18:25;;;;;;;1.00;1.00;;;11.50;99.90;;;;;;5076174;28;20610;-69
2022/01/04 06:20:51;;;;;;;1.13;1.10;;;11.50;99.90;;;;;;5074855;28;20173;-68
2022/01/04 06:23:17;;;;;;;0.97;0.90;;;11.40;99.90;;;;;;5075923;28;20165;-68
2022/01/04 06:25:42;;;;;;;0.70;0.70;;;11.40;99.90;;;;;;5076258;28;20165;-68
2022/01/04 06:28:08;;;;;;;1.03;1.03;;;11.40;99.90;;;;;;5075902;28;20550;-68
2022/01/04 06:30:34;;;;;;;0.80;0.80;;;11.30;99.90;;;;;;5074829;28;20203;-68
2022/01/04 06:33:00;;;;;;;0.63;0.60;;;11.30;99.90;;;;;;5075549;28;20905;-68
2022/01/04 06:35:27;;;;;;;1.40;0.70;;;11.20;99.90;;;;;;5075898;28;20819;-68
2022/01/04 06:37:53;;;;;;;0.98;0.70;;;11.20;99.90;;;;;;5062250;28;20420;-67
2022/01/04 06:40:19;;;;;;;0.73;0.70;;;11.20;99.90;;;;;;5062196;28;20323;-68
2022/01/04 06:42:44;;;;;;;1.33;0.73;;;11.20;99.90;;;;;;5055657;28;20631;-68
2022/01/04 06:45:11;;;;;;;0.70;0.70;;;11.10;99.90;;;;;;5064573;28;20378;-69
2022/01/04 06:47:36;;;;;;;0.50;0.50;;;11.20;99.90;;;;;;5064963;28;20686;-69
2022/01/04 06:50:04;;;;;;;2.13;1.03;;;11.20;99.90;;;;;;5063562;28;20205;-69
2022/01/04 06:52:30;;;;;;;1.17;1.08;;;11.10;99.90;;;;;;5055271;28;20260;-68
2022/01/04 06:54:55;;;;;;;0.87;0.87;;;11.20;99.90;;;;;;5055742;28;20295;-68
2022/01/04 06:57:21;;;;;;;2.23;1.10;;;11.10;99.90;;;;;;5054180;28;20201;-68
2022/01/04 06:59:47;;;;;;;1.00;0.90;;;11.20;99.90;;;;;;5069620;28;20203;-68
2022/01/04 07:02:12;;;;;;;0.67;0.67;;;11.20;99.90;;;;;;5075049;28;20201;-68
2022/01/04 07:04:38;;;;;;;0.70;0.57;;;11.20;99.90;;;;;;5061705;28;20212;-68
2022/01/04 07:07:03;;;;;;;0.60;0.60;;;11.20;99.90;;;;;;5055356;28;20185;-69
2022/01/04 07:09:29;;;;;;;1.07;0.90;;;11.30;99.90;;;;;;5055371;28;20173;-68
2022/01/04 07:11:55;;;;;;;0.73;0.73;;;11.30;99.90;;;;;;5055017;28;20184;-69
2022/01/04 07:14:20;;;;;;;1.43;1.00;;;11.30;99.90;;;;;;5055374;28;20183;-68
2022/01/04 07:16:46;;;;;;;3.40;0.73;;;11.30;99.90;;;;;;5055132;28;20189;-69
2022/01/04 07:19:12;;;;;;;0.83;0.83;;;11.30;99.90;;;;;;5055273;28;20253;-69
2022/01/04 07:21:38;;;;;;;1.33;1.07;;;11.30;99.90;;;;;;5054775;28;20762;-67
2022/01/04 07:24:04;;;;;;;2.13;1.10;;;11.40;99.90;;;;;;5055143;28;20166;-69
2022/01/04 07:26:30;;;;;;;0.93;0.90;;;11.40;99.90;;;;;;5054625;28;20193;-69
2022/01/04 07:28:56;;;;;;;0.60;0.53;;;11.40;99.90;;;;;;5054891;28;20697;-64
2022/01/04 07:31:21;;;;;;;0.67;0.67;;;11.50;99.90;;;;;;5054305;28;20668;-64
2022/01/04 07:33:47;;;;;;;1.07;1.00;;;11.40;99.90;;;;;;5053487;28;20173;-65
2022/01/04 07:36:14;;;;;;;0.80;0.80;;;11.50;99.90;;;;;;5055059;28;20307;-62
2022/01/04 07:38:41;;;;;;;2.45;2.25;;;11.50;99.90;;;;;;5055030;28;20177;-65
2022/01/04 07:41:07;;;;;;;1.23;0.88;;;11.50;99.90;;;;;;5054420;28;20180;-65
2022/01/04 07:43:33;;;;;;;3.70;2.10;;;11.50;99.90;;;;;;5054736;28;20169;-63
2022/01/04 07:45:59;;;;;;;1.60;1.48;;;11.50;99.90;;;;;;5054480;28;20496;-65
2022/01/04 07:48:25;;;;;;;1.57;1.47;;;11.60;99.90;;;;;;5060389;28;20253;-64
2022/01/04 07:50:53;;;;;;;1.07;0.80;;;11.60;99.90;;;;;;5054569;28;20463;-62
2022/01/04 07:53:18;;;;;;;0.50;0.47;;;11.60;99.90;;;;;;5054055;28;20408;-64
2022/01/04 07:55:44;;;;;;;3.47;1.70;;;11.60;99.90;;;;;;5054639;28;20177;-62
2022/01/04 07:58:10;;;;;;;0.73;0.73;;;11.70;99.90;;;;;;5056424;28;20257;-63
2022/01/04 08:00:35;;;;;;;1.40;1.33;;;11.70;99.90;;;;;;5074057;28;20178;-64
2022/01/04 08:03:03;;;;;;;0.77;0.77;;;11.70;99.90;;;;;;5073924;28;20212;-63
2022/01/04 08:05:29;;;;;;;0.70;0.70;;;11.80;99.90;;;;;;5074276;28;20206;-64
2022/01/04 08:07:54;;;;;;;2.33;1.13;;;11.80;99.90;;;;;;5074062;28;20208;-64
2022/01/04 08:10:20;;;;;;;0.63;0.63;;;11.90;99.90;;;;;;5073963;28;20204;-63
2022/01/04 08:12:45;;;;;;;0.60;0.60;;;11.90;99.90;;;;;;5073749;28;20222;-64
2022/01/04 08:15:11;;;;;;;0.57;0.57;;;12.00;99.90;;;;;;5073977;28;20173;-65
2022/01/04 08:17:38;;;;;;;0.73;0.70;;;12.00;99.90;;;;;;5073844;28;20193;-65
2022/01/04 08:20:05;;;;;;;0.70;0.70;;;12.10;99.90;;;;;;5074137;28;20415;-65
2022/01/04 08:22:32;;;;;;;0.85;0.80;;;12.10;99.90;;;;;;5073935;28;20174;-65
2022/01/04 08:25:07;;;;;;;0.88;0.85;;;12.10;99.90;;;;;;5074178;28;20184;-64
2022/01/04 08:27:34;;;;;;;1.47;1.37;;;12.10;99.90;;;;;;5074089;28;20193;-65
2022/01/04 08:30:01;;;;;;;2.23;2.07;;;12.10;99.90;;;;;;5072512;28;20949;-65
2022/01/04 08:32:27;;;;;;;1.65;0.90;;;12.10;99.90;;;;;;5072250;28;20410;-65
2022/01/04 08:34:53;;;;;;;1.25;1.13;;;12.20;99.90;;;;;;5073998;28;20210;-64
2022/01/04 08:37:19;;;;;;;0.87;0.87;;;12.20;99.90;;;;;;5073301;28;20236;-64
2022/01/04 08:39:45;;;;;;;1.00;0.90;;;12.30;99.90;;;;;;5073539;28;20798;-64
2022/01/04 08:42:12;;;;;;;0.50;0.50;;;12.30;99.90;;;;;;5073305;28;20434;-65
2022/01/04 08:44:39;;;;;;;0.70;0.70;;;12.30;99.90;;;;;;5073532;28;20408;-64
2022/01/04 08:47:07;;;;;;;0.50;0.50;;;12.40;99.90;;;;;;5069565;28;20300;-63
2022/01/04 08:49:33;;;;;;;2.97;0.40;;;12.50;99.90;;;;;;5071820;28;20487;-66
2022/01/04 08:51:58;;;;;;;1.00;0.90;;;12.50;99.90;;;;;;5073410;28;20266;-64
2022/01/04 08:54:24;;;;;;;0.50;0.50;;;12.60;99.90;;;;;;5073548;28;20578;-65
2022/01/04 08:56:49;;;;;;;0.73;0.73;;;12.60;99.90;;;;;;5073439;28;20570;-66
2022/01/04 08:59:15;;;;;;;0.87;0.87;;;12.70;99.90;;;;;;5062069;28;20169;-70
2022/01/04 09:01:41;;;;;;;0.93;0.70;;;12.80;99.90;;;;;;5052791;28;20512;-65
2022/01/04 09:04:07;;;;;;;0.93;0.80;;;12.80;99.90;;;;;;5053051;28;20333;-64
2022/01/04 09:06:34;;;;;;;0.67;0.63;;;12.90;99.90;;;;;;5053031;28;20500;-64
2022/01/04 09:09:00;;;;;;;0.70;0.70;;;12.90;99.90;;;;;;5053138;28;20466;-64
2022/01/04 09:11:26;;;;;;;0.73;0.73;;;13.00;99.90;;;;;;5051325;28;20525;-63
2022/01/04 09:14:12;;;;;;;0.63;0.63;;;13.00;99.90;;;;;;5053000;28;20869;-63
2022/01/04 09:19:25;;;;;;;0.70;0.70;;;13.10;99.90;;;;;;5053209;28;20408;-64
2022/01/04 09:21:51;;;;;;;1.13;1.03;;;13.20;99.90;;;;;;5052637;28;20419;-63
2022/01/04 09:24:17;;;;;;;0.90;0.90;;;13.20;99.90;;;;;;5053751;28;20407;-64
2022/01/04 09:26:43;;;;;;;2.33;0.73;;;13.20;99.90;;;;;;5053029;28;20267;-64
2022/01/04 09:29:09;;;;;;;0.83;0.83;;;13.20;99.90;;;;;;5053111;28;20888;-63
2022/01/04 09:31:35;;;;;;;1.37;1.20;;;13.20;99.90;;;;;;5052373;28;20208;-63
2022/01/04 09:34:02;;;;;;;0.40;0.40;;;13.20;99.90;;;;;;5052941;28;20709;-64
2022/01/04 09:36:40;;;;;;;11.43;2.60;;;13.20;99.90;;;;;;5052692;28;20431;-64
2022/01/04 09:39:11;;;;;;;1.63;1.50;;;13.20;99.90;;;;;;5053257;28;20414;-65
2022/01/04 09:41:37;;;;;;;1.50;1.40;;;13.20;99.90;;;;;;5052756;28;20389;-64
2022/01/04 09:44:03;;;;;;;2.40;0.80;;;13.20;99.90;;;;;;5053018;28;20928;-64
2022/01/04 09:46:29;;;;;;;0.60;0.50;;;13.20;99.90;;;;;;5052954;28;20786;-64
2022/01/04 09:48:56;;;;;;;0.70;0.70;;;13.20;99.90;;;;;;5053527;28;20418;-63
2022/01/04 09:51:22;;;;;;;0.90;0.90;;;13.20;99.90;;;;;;5056263;28;20208;-64
2022/01/04 09:53:48;;;;;;;2.10;0.80;;;13.20;99.90;;;;;;5056858;28;20497;-63
2022/01/04 09:56:14;;;;;;;1.80;0.90;;;13.20;99.90;;;;;;5056605;28;20380;-64
2022/01/04 09:58:40;;;;;;;0.70;0.70;;;13.20;99.90;;;;;;5062807;28;20419;-63
2022/01/04 10:01:05;;;;;;;1.23;0.73;;;13.20;99.90;;;;;;5076099;28;20597;-64
2022/01/04 10:03:32;;;;;;;2.33;0.70;;;13.20;99.90;;;;;;5076749;28;20190;-64
2022/01/04 10:06:16;;;;;;;1.17;0.80;;;13.10;99.90;;;;;;5076697;28;20173;-65
2022/01/04 10:09:03;;;;;;;0.60;0.60;;;13.10;99.90;;;;;;5076704;28;20444;-64
2022/01/04 10:11:39;;;;;;;0.93;0.73;;;13.10;99.90;;;;;;5075974;28;20460;-64
2022/01/04 10:14:24;;;;;;;1.57;0.80;;;13.10;99.90;;;;;;5076721;28;20433;-65
2022/01/04 10:17:15;;;;;;;2.07;0.93;;;13.20;99.90;;;;;;5076160;28;20432;-63
2022/01/04 10:19:44;;;;;;;1.07;0.97;;;13.20;99.90;;;;;;5070662;28;20425;-64
2022/01/04 10:22:19;;;;;;;1.73;0.77;;;13.20;99.90;;;;;;5075893;28;20420;-63
2022/01/04 10:24:47;;;;;;;1.00;1.00;;;13.20;99.90;;;;;;5076570;28;20409;-63
2022/01/04 10:27:32;;;;;;;0.73;0.50;;;13.20;99.90;;;;;;5075797;28;20938;-65
2022/01/04 10:30:27;;;;;;;0.57;0.57;;;13.30;99.90;;;;;;5076253;28;20826;-64
2022/01/04 10:33:08;;;;;;;0.90;0.90;;;13.30;99.90;;;;;;5075824;28;20454;-65
2022/01/04 10:35:39;;;;;;;1.43;1.33;;;13.40;99.90;;;;;;5076251;28;20836;-66
2022/01/04 10:38:13;;;;;;;1.57;1.47;;;13.40;99.90;;;;;;5076082;28;20397;-64
2022/01/04 10:40:41;;;;;;;1.50;1.30;;;13.40;99.90;;;;;;5075890;28;20908;-65
2022/01/04 10:43:14;;;;;;;1.33;0.70;;;13.40;99.90;;;;;;5075876;28;20376;-65
2022/01/04 10:45:42;;;;;;;0.90;0.90;;;13.50;99.90;;;;;;5076734;28;20772;-63
2022/01/04 10:48:22;;;;;;;1.00;0.90;;;13.50;99.90;;;;;;5078640;28;20425;-65
2022/01/04 10:51:05;;;;;;;1.20;0.90;;;13.50;99.90;;;;;;5080546;28;20456;-64
2022/01/04 10:53:36;;;;;;;1.03;0.97;;;13.70;99.90;;;;;;5077586;28;20772;-65
2022/01/04 10:56:05;;;;;;;1.20;0.70;;;13.70;99.90;;;;;;5078268;28;20416;-65
2022/01/04 10:58:38;;;;;;;0.90;0.80;;;13.70;99.90;;;;;;5073975;28;20443;-64
2022/01/04 11:01:25;;;;;;;1.00;1.00;;;13.70;99.90;;;;;;5055043;28;20743;-66
2022/01/04 11:03:55;;;;;;;2.03;1.83;;;13.70;99.90;;;;;;5055822;28;20427;-65
2022/01/04 11:06:36;;;;;;;1.43;1.30;;;13.60;99.90;;;;;;5055840;28;20525;-64
2022/01/04 11:09:07;;;;;;;1.13;1.03;;;13.60;99.90;;;;;;5055525;28;20411;-63
2022/01/04 11:11:33;;;;;;;1.30;1.20;;;13.60;99.90;;;;;;5054888;28;20465;-62
2022/01/04 11:13:59;;;;;;;0.70;0.70;;;13.60;99.90;;;;;;5055302;28;20374;-65
2022/01/04 11:16:28;;;;;;;1.00;1.00;;;13.50;99.90;;;;;;5056480;28;20952;-65
2022/01/04 11:18:55;;;;;;;4.23;1.23;;;13.50;99.90;;;;;;5061298;28;20164;-65
2022/01/04 11:21:33;;;;;;;0.73;0.73;;;13.50;99.90;;;;;;5065669;28;20506;-65
2022/01/04 11:24:02;;;;;;;0.70;0.70;;;13.50;99.90;;;;;;5054987;28;20384;-66
2022/01/04 11:26:29;;;;;;;1.27;1.17;;;13.60;99.90;;;;;;5054725;28;20446;-66
2022/01/04 11:28:57;;;;;;;1.07;1.03;;;13.60;99.90;;;;;;5055001;28;20769;-65
2022/01/04 11:31:44;;;;;;;1.40;1.33;;;13.70;99.90;;;;;;5069354;28;20464;-65
2022/01/04 11:34:47;;;;;;;0.90;0.90;;;13.60;99.90;;;;;;5075093;28;20421;-66
2022/01/04 11:37:18;;;;;;;1.20;1.10;;;13.60;99.90;;;;;;5073044;28;20464;-63
2022/01/04 11:39:44;;;;;;;1.60;0.83;;;13.60;99.90;;;;;;5054781;28;20399;-63
2022/01/04 11:42:13;;;;;;;0.40;0.40;;;13.50;99.90;;;;;;5054573;28;20436;-64
2022/01/04 11:44:48;;;;;;;1.00;0.70;;;13.50;99.90;;;;;;5054659;28;20415;-66
2022/01/04 11:47:18;;;;;;;1.33;0.70;;;13.50;99.90;;;;;;5054423;28;20831;-66
2022/01/04 11:50:20;;;;;;;1.07;1.00;;;13.40;99.90;;;;;;5056778;28;20430;-64
2022/01/04 11:52:55;;;;;;;0.70;0.70;;;13.50;99.90;;;;;;5021069;28;20807;-63
2022/01/04 11:55:26;;;;;;;1.17;1.07;;;13.40;99.90;;;;;;5053965;28;20406;-67
2022/01/04 11:57:57;;;;;;;0.80;0.80;;;13.50;99.90;;;;;;5067112;28;20445;-64
2022/01/04 12:00:25;;;;;;;2.43;1.17;;;13.40;99.90;;;;;;5053035;28;20485;-64
2022/01/04 12:03:03;;;;;;;1.33;1.23;;;13.50;99.90;;;;;;5061956;28;20419;-66
2022/01/04 12:05:29;;;;;;;1.50;1.40;;;13.40;99.90;;;;;;5069930;28;20434;-66
2022/01/04 12:07:57;;;;;;;0.83;0.83;;;13.40;99.90;;;;;;5074215;28;20431;-64
2022/01/04 12:10:23;;;;;;;1.20;1.07;;;13.40;99.90;;;;;;5073307;28;20203;-66
2022/01/04 12:12:58;;;;;;;2.93;1.30;;;13.50;99.90;;;;;;5072120;28;20796;-64
2022/01/04 12:15:32;;;;;;;5.20;1.90;;;13.40;99.90;;;;;;5070985;28;20405;-62
2022/01/04 12:18:02;;;;;;;2.37;1.10;;;13.40;99.90;;;;;;5054130;28;20835;-65
2022/01/04 12:20:43;;;;;;;1.23;0.97;;;13.30;99.90;;;;;;5053993;28;20489;-66
2022/01/04 12:23:26;;;;;;;1.73;1.07;;;13.30;99.90;;;;;;5053313;28;20414;-64
2022/01/04 12:26:14;;;;;;;1.23;1.00;;;13.30;99.90;;;;;;5054153;28;20414;-65
2022/01/04 12:28:58;;;;;;;2.33;1.23;;;13.20;99.90;;;;;;5054221;28;20410;-64
2022/01/04 12:31:35;;;;;;;1.00;1.00;;;13.20;99.90;;;;;;5053125;28;20464;-63
2022/01/04 12:34:23;;;;;;;1.40;1.30;;;13.10;99.90;;;;;;5053581;28;20467;-65
2022/01/04 12:36:49;;;;;;;1.27;1.00;;;13.10;99.90;;;;;;5053716;28;20508;-62
2022/01/04 12:39:19;;;;;;;0.90;0.87;;;13.10;99.90;;;;;;5053808;28;20413;-65
2022/01/04 12:41:48;;;;;;;1.00;1.00;;;13.10;99.90;;;;;;5052927;28;20407;-64
2022/01/04 12:44:22;;;;;;;1.40;1.30;;;13.10;99.90;;;;;;5053750;28;20410;-64
2022/01/04 12:46:49;;;;;;;1.00;1.00;;;13.10;99.90;;;;;;5053384;28;20904;-64
2022/01/04 12:49:18;;;;;;;1.10;1.00;;;13.00;99.90;;;;;;5053679;28;20442;-64
2022/01/04 12:51:50;;;;;;;1.43;1.20;;;13.00;99.90;;;;;;5053288;28;20782;-64
2022/01/04 12:54:24;;;;;;;1.40;1.30;;;13.00;99.90;;;;;;5053434;28;20472;-63
2022/01/04 12:56:51;;;;;;;1.40;1.23;;;13.00;99.90;;;;;;5053315;28;20434;-65
2022/01/04 12:59:25;;;;;;;1.30;1.20;;;13.00;99.90;;;;;;5061131;28;20407;-64